Time;durP1;ratioP1;P1;durP2;ratioP2;P2;SDS_P1;SDS_P2;PMS_P1;PMS_P2;Temp;Humidity;BMP_temperature;BMP_pressure;BME280_temperature;BME280_humidity;BME280_pressure;Samples;Min_cycle;Max_cycle;Signal;HPM_P1;HPM_P2
2023/10/03 00:00:58;;;;;;;;;;;;;;;;;;5051637;28;19990;-66
2023/10/03 00:03:24;;;;;;;;;;;;;;;;;;5051561;28;19986;-67
2023/10/03 00:05:51;;;;;;;;;;;;;;;;;;5051307;28;20108;-67
2023/10/03 00:08:17;;;;;;;;;;;;;;;;;;5050074;28;19990;-68
2023/10/03 00:10:45;;;;;;;;;;;;;;;;;;5051366;28;20358;-66
2023/10/03 00:13:11;;;;;;;;;;;;;;;;;;5051122;28;19990;-67
2023/10/03 00:15:43;;;;;;;;;;;;;;;;;;5051027;28;19998;-66
2023/10/03 00:18:09;;;;;;;;;;;;;;;;;;5051108;28;20399;-67
2023/10/03 00:20:36;;;;;;;;;;;;;;;;;;5051100;28;19982;-67
2023/10/03 00:23:02;;;;;;;;;;;;;;;;;;5049938;28;20032;-67
2023/10/03 00:25:28;;;;;;;;;;;;;;;;;;5052981;28;20009;-67
2023/10/03 00:27:55;;;;;;;;;;;;;;;;;;5055296;28;20361;-67
2023/10/03 00:30:23;;;;;;;;;;;;;;;;;;5055072;28;20472;-67
2023/10/03 00:32:49;;;;;;;;;;;;;;;;;;5054965;28;20450;-66
2023/10/03 00:35:15;;;;;;;;;;;;;;;;;;5054922;28;19989;-67
2023/10/03 00:37:44;;;;;;;;;;;;;;;;;;5054898;28;19993;-66
2023/10/03 00:42:48;;;;;;;;;;;;;;;;;;5054870;28;19981;-66
2023/10/03 00:45:19;;;;;;;;;;;;;;;;;;5054389;28;20367;-67
2023/10/03 00:47:45;;;;;;;;;;;;;;;;;;5054495;28;19982;-68
2023/10/03 00:50:12;;;;;;;;;;;;;;;;;;5054586;28;20132;-67
2023/10/03 00:52:38;;;;;;;;;;;;;;;;;;5054620;28;19981;-67
2023/10/03 00:55:04;;;;;;;;;;;;;;;;;;5054486;28;20315;-67
2023/10/03 00:57:32;;;;;;;;;;;;;;;;;;5053285;28;20443;-67
2023/10/03 00:59:58;;;;;;;;;;;;;;;;;;5053271;28;19985;-66
2023/10/03 01:02:24;;;;;;;;;;;;;;;;;;5052987;28;19986;-67
2023/10/03 01:04:52;;;;;;;;;;;;;;;;;;5054194;28;20006;-67
2023/10/03 01:07:19;;;;;;;;;;;;;;;;;;5054194;28;19982;-66
2023/10/03 01:09:46;;;;;;;;;;;;;;;;;;5054115;28;20081;-67
2023/10/03 01:12:12;;;;;;;;;;;;;;;;;;5051541;28;20069;-67
2023/10/03 01:14:39;;;;;;;;;;;;;;;;;;5054228;28;19986;-66
2023/10/03 01:17:06;;;;;;;;;;;;;;;;;;5054056;28;20350;-67
2023/10/03 01:19:32;;;;;;;;;;;;;;;;;;5054026;28;19989;-67
2023/10/03 01:21:59;;;;;;;;;;;;;;;;;;5053972;28;19989;-67
2023/10/03 01:24:25;;;;;;;;;;;;;;;;;;5054193;28;20052;-66
2023/10/03 01:26:54;;;;;;;;;;;;;;;;;;5054059;28;20013;-67
2023/10/03 01:29:20;;;;;;;;;;;;;;;;;;5052815;28;19982;-67
2023/10/03 01:31:47;;;;;;;;;;;;;;;;;;5053776;28;19989;-67
2023/10/03 01:34:13;;;;;;;;;;;;;;;;;;5053817;28;20067;-67
2023/10/03 01:36:40;;;;;;;;;;;;;;;;;;5053284;28;20036;-67
2023/10/03 01:39:06;;;;;;;;;;;;;;;;;;5053914;28;19986;-67
2023/10/03 01:41:34;;;;;;;;;;;;;;;;;;5053814;28;19982;-66
2023/10/03 01:44:00;;;;;;;;;;;;;;;;;;5053447;28;20489;-67
2023/10/03 01:46:26;;;;;;;;;;;;;;;;;;5052328;28;20115;-66
2023/10/03 01:48:52;;;;;;;;;;;;;;;;;;5053329;28;19982;-66
2023/10/03 01:51:18;;;;;;;;;;;;;;;;;;5053646;28;19989;-66
2023/10/03 01:53:44;;;;;;;;;;;;;;;;;;5053568;28;20418;-67
2023/10/03 01:56:10;;;;;;;;;;;;;;;;;;5053487;28;20016;-66
2023/10/03 01:58:36;;;;;;;;;;;;;;;;;;5053422;28;19982;-67
2023/10/03 02:01:03;;;;;;;;;;;;;;;;;;5053239;28;20013;-67
2023/10/03 02:03:29;;;;;;;;;;;;;;;;;;5051953;28;19990;-66
2023/10/03 02:05:55;;;;;;;;;;;;;;;;;;5053058;28;20091;-67
2023/10/03 02:08:23;;;;;;;;;;;;;;;;;;5053367;28;20446;-67
2023/10/03 02:10:50;;;;;;;;;;;;;;;;;;5051851;28;20362;-66
2023/10/03 02:13:17;;;;;;;;;;;;;;;;;;5052806;28;19993;-67
2023/10/03 02:15:43;;;;;;;;;;;;;;;;;;5052986;28;19982;-67
2023/10/03 02:18:09;;;;;;;;;;;;;;;;;;5052961;28;20032;-66
2023/10/03 02:20:36;;;;;;;;;;;;;;;;;;5051581;28;19989;-67
2023/10/03 02:23:05;;;;;;;;;;;;;;;;;;5052974;28;20397;-66
2023/10/03 02:25:36;;;;;;;;;;;;;;;;;;5052711;28;20006;-67
2023/10/03 02:28:02;;;;;;;;;;;;;;;;;;5052864;28;19986;-69
2023/10/03 02:30:29;;;;;;;;;;;;;;;;;;5052695;28;20083;-68
2023/10/03 02:32:55;;;;;;;;;;;;;;;;;;5052770;28;20076;-66
2023/10/03 02:35:22;;;;;;;;;;;;;;;;;;5051585;28;20017;-67
2023/10/03 02:37:49;;;;;;;;;;;;;;;;;;5052530;28;20060;-67
2023/10/03 02:40:22;;;;;;;;;;;;;;;;;;5052480;28;19986;-65
2023/10/03 02:42:48;;;;;;;;;;;;;;;;;;5052441;28;19982;-67
2023/10/03 02:45:17;;;;;;;;;;;;;;;;;;5052122;28;20570;-67
2023/10/03 02:47:43;;;;;;;;;;;;;;;;;;5052153;28;20029;-66
2023/10/03 02:50:12;;;;;;;;;;;;;;;;;;5051439;28;19992;-66
2023/10/03 02:52:39;;;;;;;;;;;;;;;;;;5051222;28;19992;-67
2023/10/03 02:55:05;;;;;;;;;;;;;;;;;;5052368;28;20335;-67
2023/10/03 02:57:31;;;;;;;;;;;;;;;;;;5052234;28;20465;-66
2023/10/03 02:59:57;;;;;;;;;;;;;;;;;;5051939;28;20083;-66
2023/10/03 03:02:23;;;;;;;;;;;;;;;;;;5052340;28;19986;-66
2023/10/03 03:04:49;;;;;;;;;;;;;;;;;;5052112;28;20031;-66
2023/10/03 03:07:16;;;;;;;;;;;;;;;;;;5051854;28;20163;-66
2023/10/03 03:09:44;;;;;;;;;;;;;;;;;;5050734;28;19996;-67
2023/10/03 03:12:10;;;;;;;;;;;;;;;;;;5052127;28;20351;-66
2023/10/03 03:14:36;;;;;;;;;;;;;;;;;;5050601;28;20035;-67
2023/10/03 03:17:13;;;;;;;;;;;;;;;;;;5052124;28;19988;-66
2023/10/03 03:19:40;;;;;;;;;;;;;;;;;;5051808;28;19988;-68
2023/10/03 03:22:06;;;;;;;;;;;;;;;;;;5051876;28;19989;-66
2023/10/03 03:24:35;;;;;;;;;;;;;;;;;;5049840;28;19989;-67
2023/10/03 03:27:01;;;;;;;;;;;;;;;;;;5031835;28;20052;-66
2023/10/03 03:29:36;;;;;;;;;;;;;;;;;;5031989;28;19986;-66
2023/10/03 03:32:04;;;;;;;;;;;;;;;;;;5031950;28;19985;-66
2023/10/03 03:34:30;;;;;;;;;;;;;;;;;;5031702;28;20520;-66
2023/10/03 03:37:14;;;;;;;;;;;;;;;;;;5031754;28;19993;-67
2023/10/03 03:39:52;;;;;;;;;;;;;;;;;;5030242;28;20358;-67
2023/10/03 03:42:18;;;;;;;;;;;;;;;;;;5035516;28;20017;-67
2023/10/03 03:44:45;;;;;;;;;;;;;;;;;;5051231;28;20068;-67
2023/10/03 03:47:11;;;;;;;;;;;;;;;;;;5051423;28;20218;-67
2023/10/03 03:49:37;;;;;;;;;;;;;;;;;;5051434;28;20350;-66
2023/10/03 03:52:05;;;;;;;;;;;;;;;;;;5051297;28;20434;-66
2023/10/03 03:54:31;;;;;;;;;;;;;;;;;;5050224;28;20025;-66
2023/10/03 03:56:57;;;;;;;;;;;;;;;;;;5051394;28;20028;-66
2023/10/03 03:59:23;;;;;;;;;;;;;;;;;;5051163;28;20028;-67
2023/10/03 04:01:50;;;;;;;;;;;;;;;;;;5057929;28;20427;-66
2023/10/03 04:04:16;;;;;;;;;;;;;;;;;;5056610;28;20443;-66
2023/10/03 04:06:42;;;;;;;;;;;;;;;;;;5057687;28;20075;-66
2023/10/03 04:09:08;;;;;;;;;;;;;;;;;;5057887;28;20572;-66
2023/10/03 04:11:34;;;;;;;;;;;;;;;;;;5057904;28;19986;-65
2023/10/03 04:14:04;;;;;;;;;;;;;;;;;;5054456;28;20472;-64
2023/10/03 04:16:38;;;;;;;;;;;;;;;;;;5057504;28;20011;-64
2023/10/03 04:19:05;;;;;;;;;;;;;;;;;;5057509;28;19986;-64
2023/10/03 04:21:32;;;;;;;;;;;;;;;;;;5057740;28;19985;-63
2023/10/03 04:23:59;;;;;;;;;;;;;;;;;;5057504;28;20346;-63
2023/10/03 04:26:25;;;;;;;;;;;;;;;;;;5057532;28;20009;-65
2023/10/03 04:28:51;;;;;;;;;;;;;;;;;;5057740;28;20024;-63
2023/10/03 04:31:17;;;;;;;;;;;;;;;;;;5057524;28;20025;-65
2023/10/03 04:33:45;;;;;;;;;;;;;;;;;;5056556;28;20041;-64
2023/10/03 04:36:11;;;;;;;;;;;;;;;;;;5057282;28;19986;-64
2023/10/03 04:38:37;;;;;;;;;;;;;;;;;;5057385;28;20076;-65
2023/10/03 04:41:07;;;;;;;;;;;;;;;;;;5057435;28;19986;-64
2023/10/03 04:43:33;;;;;;;;;;;;;;;;;;5055979;28;20009;-65
2023/10/03 04:46:01;;;;;;;;;;;;;;;;;;5056969;28;20018;-65
2023/10/03 04:48:28;;;;;;;;;;;;;;;;;;5055787;28;19994;-65
2023/10/03 04:50:54;;;;;;;;;;;;;;;;;;5057668;28;19985;-65
2023/10/03 04:53:20;;;;;;;;;;;;;;;;;;5057556;28;20013;-66
2023/10/03 04:55:49;;;;;;;;;;;;;;;;;;5057332;28;20443;-64
2023/10/03 04:58:15;;;;;;;;;;;;;;;;;;5057288;28;20008;-65
2023/10/03 05:00:44;;;;;;;;;;;;;;;;;;5057182;28;20004;-64
2023/10/03 05:03:10;;;;;;;;;;;;;;;;;;5057604;28;19989;-65
2023/10/03 05:05:36;;;;;;;;;;;;;;;;;;5055992;28;20032;-65
2023/10/03 05:08:02;;;;;;;;;;;;;;;;;;5057170;28;19986;-64
2023/10/03 05:10:30;;;;;;;;;;;;;;;;;;5057431;28;20487;-64
2023/10/03 05:12:57;;;;;;;;;;;;;;;;;;5051579;28;19994;-64
2023/10/03 05:15:26;;;;;;;;;;;;;;;;;;5050643;28;19989;-64
2023/10/03 05:17:52;;;;;;;;;;;;;;;;;;5054309;28;19998;-65
2023/10/03 05:20:18;;;;;;;;;;;;;;;;;;5053813;28;20028;-66
2023/10/03 05:22:47;;;;;;;;;;;;;;;;;;5052763;28;19990;-66
2023/10/03 05:25:13;;;;;;;;;;;;;;;;;;5053738;28;20038;-65
2023/10/03 05:27:40;;;;;;;;;;;;;;;;;;5053542;28;19985;-66
2023/10/03 05:30:07;;;;;;;;;;;;;;;;;;5054051;28;19990;-66
2023/10/03 05:32:34;;;;;;;;;;;;;;;;;;5053797;28;19993;-64
2023/10/03 05:35:00;;;;;;;;;;;;;;;;;;5053871;28;19986;-65
2023/10/03 05:37:26;;;;;;;;;;;;;;;;;;5052618;28;19986;-65
2023/10/03 05:39:52;;;;;;;;;;;;;;;;;;5053843;28;19986;-65
2023/10/03 05:42:18;;;;;;;;;;;;;;;;;;5052265;28;19986;-64
2023/10/03 05:44:44;;;;;;;;;;;;;;;;;;5057289;28;20142;-65
2023/10/03 05:47:10;;;;;;;;;;;;;;;;;;5073473;28;20515;-65
2023/10/03 05:49:36;;;;;;;;;;;;;;;;;;5066557;28;19994;-65
2023/10/03 05:52:02;;;;;;;;;;;;;;;;;;5040127;28;20484;-64
2023/10/03 05:54:30;;;;;;;;;;;;;;;;;;5052000;28;19993;-65
2023/10/03 05:56:56;;;;;;;;;;;;;;;;;;5039257;28;20350;-65
2023/10/03 05:59:23;;;;;;;;;;;;;;;;;;5033628;28;19989;-65
2023/10/03 06:01:49;;;;;;;;;;;;;;;;;;5032681;28;20076;-65
2023/10/03 06:04:15;;;;;;;;;;;;;;;;;;5031614;28;20133;-64
2023/10/03 06:06:41;;;;;;;;;;;;;;;;;;5031563;28;20014;-64
2023/10/03 06:09:10;;;;;;;;;;;;;;;;;;5031794;28;19994;-64
2023/10/03 06:11:36;;;;;;;;;;;;;;;;;;5032553;28;20084;-64
2023/10/03 06:14:03;;;;;;;;;;;;;;;;;;5032167;28;20047;-64
2023/10/03 06:16:29;;;;;;;;;;;;;;;;;;5032176;28;19985;-65
2023/10/03 06:18:56;;;;;;;;;;;;;;;;;;5033057;28;20434;-63
2023/10/03 06:21:23;;;;;;;;;;;;;;;;;;5032979;28;20434;-64
2023/10/03 06:23:49;;;;;;;;;;;;;;;;;;5032890;28;19982;-65
2023/10/03 06:26:19;;;;;;;;;;;;;;;;;;5032727;28;20010;-65
2023/10/03 06:28:45;;;;;;;;;;;;;;;;;;5033618;28;19989;-64
2023/10/03 06:31:12;;;;;;;;;;;;;;;;;;5032745;28;20350;-64
2023/10/03 06:33:38;;;;;;;;;;;;;;;;;;5032931;28;19986;-64
2023/10/03 06:36:06;;;;;;;;;;;;;;;;;;5032766;28;19986;-64
2023/10/03 06:38:32;;;;;;;;;;;;;;;;;;5032710;28;20526;-63
2023/10/03 06:40:58;;;;;;;;;;;;;;;;;;5032650;28;20084;-64
2023/10/03 06:43:24;;;;;;;;;;;;;;;;;;5032645;28;19982;-63
2023/10/03 06:45:50;;;;;;;;;;;;;;;;;;5032567;28;20064;-64
2023/10/03 06:48:16;;;;;;;;;;;;;;;;;;5031974;28;20037;-64
2023/10/03 06:50:42;;;;;;;;;;;;;;;;;;5032697;28;19998;-63
2023/10/03 06:53:09;;;;;;;;;;;;;;;;;;5032431;28;19988;-63
2023/10/03 06:55:36;;;;;;;;;;;;;;;;;;5032542;28;20077;-63
2023/10/03 06:58:02;;;;;;;;;;;;;;;;;;5032619;28;19982;-62
2023/10/03 07:00:30;;;;;;;;;;;;;;;;;;5034875;28;20408;-63
2023/10/03 07:02:56;;;;;;;;;;;;;;;;;;5052187;28;19982;-62
2023/10/03 07:05:22;;;;;;;;;;;;;;;;;;5051798;28;20013;-63
2023/10/03 07:07:48;;;;;;;;;;;;;;;;;;5051995;28;19989;-62
2023/10/03 07:10:14;;;;;;;;;;;;;;;;;;5052178;28;20031;-62
2023/10/03 07:12:40;;;;;;;;;;;;;;;;;;5052030;28;19988;-63
2023/10/03 07:15:08;;;;;;;;;;;;;;;;;;5052037;28;20140;-63
2023/10/03 07:17:35;;;;;;;;;;;;;;;;;;5034927;28;19990;-63
2023/10/03 07:20:01;;;;;;;;;;;;;;;;;;5031857;28;19986;-63
2023/10/03 07:22:27;;;;;;;;;;;;;;;;;;5031949;28;20482;-63
2023/10/03 07:24:53;;;;;;;;;;;;;;;;;;5031520;28;20085;-62
2023/10/03 07:27:19;;;;;;;;;;;;;;;;;;5031881;28;20024;-63
2023/10/03 07:29:46;;;;;;;;;;;;;;;;;;5031722;28;20032;-63
2023/10/03 07:32:13;;;;;;;;;;;;;;;;;;5031868;28;19986;-63
2023/10/03 07:34:43;;;;;;;;;;;;;;;;;;5031606;28;19986;-63
2023/10/03 07:37:09;;;;;;;;;;;;;;;;;;5031947;28;19986;-63
2023/10/03 07:39:35;;;;;;;;;;;;;;;;;;5031796;28;19986;-62
2023/10/03 07:42:04;;;;;;;;;;;;;;;;;;5031618;28;20439;-62
2023/10/03 07:44:30;;;;;;;;;;;;;;;;;;5030509;28;20068;-63
2023/10/03 07:46:56;;;;;;;;;;;;;;;;;;5031743;28;20014;-63
2023/10/03 07:49:22;;;;;;;;;;;;;;;;;;5031455;28;20478;-63
2023/10/03 07:51:48;;;;;;;;;;;;;;;;;;5031594;28;19986;-63
2023/10/03 07:54:14;;;;;;;;;;;;;;;;;;5031663;28;20039;-63
2023/10/03 07:56:43;;;;;;;;;;;;;;;;;;5031609;28;19986;-63
2023/10/03 07:59:09;;;;;;;;;;;;;;;;;;5031192;28;20450;-64
2023/10/03 08:01:38;;;;;;;;;;;;;;;;;;5031208;28;19986;-63
2023/10/03 08:04:13;;;;;;;;;;;;;;;;;;5030169;28;19986;-64
2023/10/03 08:06:39;;;;;;;;;;;;;;;;;;5031320;28;20014;-65
2023/10/03 08:09:08;;;;;;;;;;;;;;;;;;5031437;28;20563;-64
2023/10/03 08:11:34;;;;;;;;;;;;;;;;;;5031565;28;20006;-64
2023/10/03 08:14:00;;;;;;;;;;;;;;;;;;5031502;28;20006;-63
2023/10/03 08:16:27;;;;;;;;;;;;;;;;;;5031148;28;20072;-63
2023/10/03 08:18:58;;;;;;;;;;;;;;;;;;5031582;28;20469;-63
2023/10/03 08:21:27;;;;;;;;;;;;;;;;;;5029994;28;20340;-63
2023/10/03 08:23:53;;;;;;;;;;;;;;;;;;5031331;28;19993;-63
2023/10/03 08:26:21;;;;;;;;;;;;;;;;;;5031147;28;20006;-63
2023/10/03 08:28:58;;;;;;;;;;;;;;;;;;5031123;28;19989;-63
2023/10/03 08:31:25;;;;;;;;;;;;;;;;;;5031115;28;19986;-64
2023/10/03 08:33:55;;;;;;;;;;;;;;;;;;5031427;28;20394;-62
2023/10/03 08:36:21;;;;;;;;;;;;;;;;;;5030227;28;19986;-63
2023/10/03 08:38:48;;;;;;;;;;;;;;;;;;5031357;28;19987;-64
2023/10/03 08:41:15;;;;;;;;;;;;;;;;;;5031133;28;20078;-63
2023/10/03 08:43:41;;;;;;;;;;;;;;;;;;5031290;28;20047;-64
2023/10/03 08:46:09;;;;;;;;;;;;;;;;;;5030927;28;20589;-63
2023/10/03 08:48:35;;;;;;;;;;;;;;;;;;5035051;28;19990;-63
2023/10/03 08:51:01;;;;;;;;;;;;;;;;;;5034769;28;20586;-63
2023/10/03 08:53:27;;;;;;;;;;;;;;;;;;5035230;28;20012;-64
2023/10/03 08:56:02;;;;;;;;;;;;;;;;;;5034543;28;20068;-64
2023/10/03 08:58:27;;;;;;;;;;;;;;;;;;5034989;28;19990;-64
2023/10/03 09:00:59;;;;;;;;;;;;;;;;;;5034731;28;20047;-64
2023/10/03 09:03:25;;;;;;;;;;;;;;;;;;5033347;28;19986;-64
2023/10/03 09:05:51;;;;;;;;;;;;;;;;;;5034755;28;20473;-63
2023/10/03 09:08:17;;;;;;;;;;;;;;;;;;5034541;28;20362;-63
2023/10/03 09:10:52;;;;;;;;;;;;;;;;;;5034460;28;19986;-63
2023/10/03 09:13:23;;;;;;;;;;;;;;;;;;5034566;28;20078;-63
2023/10/03 09:15:49;;;;;;;;;;;;;;;;;;5034362;28;19993;-63
2023/10/03 09:18:15;;;;;;;;;;;;;;;;;;5034334;28;19982;-63
2023/10/03 09:20:42;;;;;;;;;;;;;;;;;;5034280;28;19986;-64
2023/10/03 09:23:08;;;;;;;;;;;;;;;;;;5034170;28;19986;-63
2023/10/03 09:25:34;;;;;;;;;;;;;;;;;;5034341;28;20002;-64
2023/10/03 09:28:00;;;;;;;;;;;;;;;;;;5034084;28;20048;-64
2023/10/03 09:30:35;;;;;;;;;;;;;;;;;;5034087;28;20036;-64
2023/10/03 09:33:04;;;;;;;;;;;;;;;;;;5033093;28;20040;-64
2023/10/03 09:35:30;;;;;;;;;;;;;;;;;;5034039;28;20073;-64
2023/10/03 09:37:56;;;;;;;;;;;;;;;;;;5034067;28;20092;-64
2023/10/03 09:40:22;;;;;;;;;;;;;;;;;;5033936;28;19998;-63
2023/10/03 09:42:48;;;;;;;;;;;;;;;;;;5034165;28;19993;-63
2023/10/03 09:45:17;;;;;;;;;;;;;;;;;;5033669;28;20018;-64
2023/10/03 09:47:44;;;;;;;;;;;;;;;;;;5033079;28;20310;-63
2023/10/03 09:50:10;;;;;;;;;;;;;;;;;;5033621;28;20389;-63
2023/10/03 09:52:36;;;;;;;;;;;;;;;;;;5033908;28;20044;-63
2023/10/03 09:55:17;;;;;;;;;;;;;;;;;;5033488;28;20366;-63
2023/10/03 09:57:43;;;;;;;;;;;;;;;;;;5032991;28;20446;-64
2023/10/03 10:00:23;;;;;;;;;;;;;;;;;;5033556;28;19986;-64
2023/10/03 10:02:49;;;;;;;;;;;;;;;;;;5033390;28;19993;-64
2023/10/03 10:05:19;;;;;;;;;;;;;;;;;;5033261;28;20002;-63
2023/10/03 10:07:49;;;;;;;;;;;;;;;;;;5033297;28;20431;-64
2023/10/03 10:10:19;;;;;;;;;;;;;;;;;;5033313;28;19986;-63
2023/10/03 10:12:45;;;;;;;;;;;;;;;;;;5032598;28;20036;-63
2023/10/03 10:17:37;;;;;;;;;;;;;;;;;;5033644;28;19994;-64
2023/10/03 10:20:03;;;;;;;;;;;;;;;;;;5033441;28;19994;-64
2023/10/03 10:22:29;;;;;;;;;;;;;;;;;;5033503;28;20077;-63
2023/10/03 10:24:55;;;;;;;;;;;;;;;;;;5033180;28;19986;-63
2023/10/03 10:27:21;;;;;;;;;;;;;;;;;;5033116;28;20016;-63
2023/10/03 10:29:47;;;;;;;;;;;;;;;;;;5033041;28;19982;-63
2023/10/03 10:32:13;;;;;;;;;;;;;;;;;;5033315;28;19994;-64
2023/10/03 10:34:46;;;;;;;;;;;;;;;;;;5033045;28;20444;-64
2023/10/03 10:37:15;;;;;;;;;;;;;;;;;;5032966;28;20014;-63
2023/10/03 10:39:41;;;;;;;;;;;;;;;;;;5032961;28;20048;-63
2023/10/03 10:42:09;;;;;;;;;;;;;;;;;;5032689;28;20423;-63
2023/10/03 10:44:35;;;;;;;;;;;;;;;;;;5032531;28;20363;-64
2023/10/03 10:47:01;;;;;;;;;;;;;;;;;;5032682;28;20037;-64
2023/10/03 10:49:27;;;;;;;;;;;;;;;;;;5031022;28;20076;-63
2023/10/03 10:51:53;;;;;;;;;;;;;;;;;;5032582;28;20032;-63
2023/10/03 10:54:19;;;;;;;;;;;;;;;;;;5032615;28;20018;-63
2023/10/03 10:56:45;;;;;;;;;;;;;;;;;;5032500;28;20033;-64
2023/10/03 10:59:12;;;;;;;;;;;;;;;;;;5032635;28;20032;-63
2023/10/03 11:01:41;;;;;;;;;;;;;;;;;;5032423;28;19990;-64
2023/10/03 11:04:08;;;;;;;;;;;;;;;;;;5032218;28;19990;-64
2023/10/03 11:06:34;;;;;;;;;;;;;;;;;;5032697;28;20018;-64
2023/10/03 11:09:00;;;;;;;;;;;;;;;;;;5031801;28;19986;-64
2023/10/03 11:11:26;;;;;;;;;;;;;;;;;;5031987;28;19988;-64
2023/10/03 11:13:53;;;;;;;;;;;;;;;;;;5032458;28;19990;-64
2023/10/03 11:16:19;;;;;;;;;;;;;;;;;;5030709;28;20029;-63
2023/10/03 11:18:45;;;;;;;;;;;;;;;;;;5032026;28;20044;-64
2023/10/03 11:21:11;;;;;;;;;;;;;;;;;;5032003;28;20013;-63
2023/10/03 11:23:37;;;;;;;;;;;;;;;;;;5032115;28;19982;-63
2023/10/03 11:26:06;;;;;;;;;;;;;;;;;;5031588;28;20010;-64
2023/10/03 11:28:32;;;;;;;;;;;;;;;;;;5032048;28;19986;-63
2023/10/03 11:30:58;;;;;;;;;;;;;;;;;;5031888;28;20014;-64
2023/10/03 11:33:24;;;;;;;;;;;;;;;;;;5031928;28;20036;-63
2023/10/03 11:35:50;;;;;;;;;;;;;;;;;;5031824;28;19986;-64
2023/10/03 11:38:16;;;;;;;;;;;;;;;;;;5031652;28;19986;-66
2023/10/03 11:40:44;;;;;;;;;;;;;;;;;;5031776;28;19994;-64
2023/10/03 11:43:10;;;;;;;;;;;;;;;;;;5031712;28;20139;-63
2023/10/03 11:45:36;;;;;;;;;;;;;;;;;;5031527;28;20529;-63
2023/10/03 11:48:04;;;;;;;;;;;;;;;;;;5031850;28;20482;-64
2023/10/03 11:50:32;;;;;;;;;;;;;;;;;;5031703;28;20724;-62
2023/10/03 11:52:57;;;;;;;;;;;;;;;;;;5031527;28;20021;-63
2023/10/03 11:55:23;;;;;;;;;;;;;;;;;;5031485;28;20028;-63
2023/10/03 11:57:49;;;;;;;;;;;;;;;;;;5031394;28;19986;-63
2023/10/03 12:00:15;;;;;;;;;;;;;;;;;;5031688;28;19989;-63
2023/10/03 12:02:41;;;;;;;;;;;;;;;;;;5031408;28;20443;-63
2023/10/03 12:05:10;;;;;;;;;;;;;;;;;;5030985;28;20017;-63
2023/10/03 12:07:36;;;;;;;;;;;;;;;;;;5031204;28;20389;-63
2023/10/03 12:10:02;;;;;;;;;;;;;;;;;;5031549;28;19993;-64
2023/10/03 12:12:28;;;;;;;;;;;;;;;;;;5031270;28;19983;-63
2023/10/03 12:14:54;;;;;;;;;;;;;;;;;;5031505;28;19982;-64
2023/10/03 12:17:20;;;;;;;;;;;;;;;;;;5031390;28;20099;-63
2023/10/03 12:19:47;;;;;;;;;;;;;;;;;;5030032;28;20013;-64
2023/10/03 12:22:13;;;;;;;;;;;;;;;;;;5034419;28;19997;-63
2023/10/03 12:24:39;;;;;;;;;;;;;;;;;;5035042;28;19986;-64
2023/10/03 12:27:05;;;;;;;;;;;;;;;;;;5035293;28;20014;-64
2023/10/03 12:29:32;;;;;;;;;;;;;;;;;;5035427;28;19986;-64
2023/10/03 12:31:58;;;;;;;;;;;;;;;;;;5035216;28;19993;-65
2023/10/03 12:34:26;;;;;;;;;;;;;;;;;;5035366;28;19990;-64
2023/10/03 12:36:52;;;;;;;;;;;;;;;;;;5035209;28;20001;-63
2023/10/03 12:39:20;;;;;;;;;;;;;;;;;;5035190;28;19989;-63
2023/10/03 12:41:46;;;;;;;;;;;;;;;;;;5033647;28;20354;-63
2023/10/03 12:44:12;;;;;;;;;;;;;;;;;;5034841;28;20010;-63
2023/10/03 12:46:38;;;;;;;;;;;;;;;;;;5034943;28;20013;-64
2023/10/03 12:49:06;;;;;;;;;;;;;;;;;;5034969;28;19994;-63
2023/10/03 12:51:33;;;;;;;;;;;;;;;;;;5034799;28;19986;-63
2023/10/03 12:53:58;;;;;;;;;;;;;;;;;;5034546;28;20481;-63
2023/10/03 12:56:24;;;;;;;;;;;;;;;;;;5035114;28;20073;-64
2023/10/03 12:58:50;;;;;;;;;;;;;;;;;;5034849;28;19986;-64
2023/10/03 13:01:16;;;;;;;;;;;;;;;;;;5034665;28;19988;-64
2023/10/03 13:03:46;;;;;;;;;;;;;;;;;;5034776;28;19986;-64
2023/10/03 13:06:14;;;;;;;;;;;;;;;;;;5033340;28;20045;-63
2023/10/03 13:08:42;;;;;;;;;;;;;;;;;;5034657;28;20016;-63
2023/10/03 13:11:08;;;;;;;;;;;;;;;;;;5034443;28;19987;-64
2023/10/03 13:13:35;;;;;;;;;;;;;;;;;;5034439;28;20469;-64
2023/10/03 13:16:01;;;;;;;;;;;;;;;;;;5034449;28;20040;-64
2023/10/03 13:18:27;;;;;;;;;;;;;;;;;;5034115;28;19994;-62
2023/10/03 13:20:53;;;;;;;;;;;;;;;;;;5034287;28;19986;-64
2023/10/03 13:23:19;;;;;;;;;;;;;;;;;;5034346;28;20068;-63
2023/10/03 13:25:45;;;;;;;;;;;;;;;;;;5034134;28;20010;-63
2023/10/03 13:28:11;;;;;;;;;;;;;;;;;;5033886;28;20040;-64
2023/10/03 13:30:37;;;;;;;;;;;;;;;;;;5033858;28;20028;-63
2023/10/03 13:33:03;;;;;;;;;;;;;;;;;;5032992;28;20033;-64
2023/10/03 13:35:30;;;;;;;;;;;;;;;;;;5034206;28;19990;-64
2023/10/03 13:37:56;;;;;;;;;;;;;;;;;;5033701;28;20084;-64
2023/10/03 13:40:22;;;;;;;;;;;;;;;;;;5033846;28;20090;-64
2023/10/03 13:42:48;;;;;;;;;;;;;;;;;;5033844;28;20081;-64
2023/10/03 13:45:14;;;;;;;;;;;;;;;;;;5033468;28;20080;-64
2023/10/03 13:47:41;;;;;;;;;;;;;;;;;;5033679;28;20398;-65
2023/10/03 13:50:09;;;;;;;;;;;;;;;;;;5034131;28;19994;-64
2023/10/03 13:52:35;;;;;;;;;;;;;;;;;;5033988;28;20347;-64
2023/10/03 13:55:06;;;;;;;;;;;;;;;;;;5033802;28;19986;-64
2023/10/03 13:57:32;;;;;;;;;;;;;;;;;;5032337;28;20406;-64
2023/10/03 13:59:58;;;;;;;;;;;;;;;;;;5033396;28;20063;-64
2023/10/03 14:02:24;;;;;;;;;;;;;;;;;;5033579;28;19990;-63
2023/10/03 14:04:50;;;;;;;;;;;;;;;;;;5033613;28;20012;-64
2023/10/03 14:07:16;;;;;;;;;;;;;;;;;;5033326;28;20060;-64
2023/10/03 14:09:41;;;;;;;;;;;;;;;;;;5033497;28;19982;-64
2023/10/03 14:12:07;;;;;;;;;;;;;;;;;;5033401;28;19986;-64
2023/10/03 14:14:33;;;;;;;;;;;;;;;;;;5033443;28;19990;-63
2023/10/03 14:17:02;;;;;;;;;;;;;;;;;;5033245;28;19993;-64
2023/10/03 14:19:28;;;;;;;;;;;;;;;;;;5033498;28;20029;-63
2023/10/03 14:21:54;;;;;;;;;;;;;;;;;;5031805;28;20056;-63
2023/10/03 14:24:20;;;;;;;;;;;;;;;;;;5031765;28;19986;-64
2023/10/03 14:26:46;;;;;;;;;;;;;;;;;;5033116;28;20056;-63
2023/10/03 14:29:12;;;;;;;;;;;;;;;;;;5033108;28;20346;-64
2023/10/03 14:31:38;;;;;;;;;;;;;;;;;;5033031;28;19986;-64
2023/10/03 14:34:04;;;;;;;;;;;;;;;;;;5032992;28;20021;-63
2023/10/03 14:36:30;;;;;;;;;;;;;;;;;;5032868;28;19990;-63
2023/10/03 14:38:57;;;;;;;;;;;;;;;;;;5032850;28;19986;-64
2023/10/03 14:41:23;;;;;;;;;;;;;;;;;;5031596;28;20460;-63
2023/10/03 14:43:49;;;;;;;;;;;;;;;;;;5031102;28;20081;-65
2023/10/03 14:46:15;;;;;;;;;;;;;;;;;;5032739;28;20014;-63
2023/10/03 14:48:41;;;;;;;;;;;;;;;;;;5032551;28;19993;-64
2023/10/03 14:51:07;;;;;;;;;;;;;;;;;;5032806;28;19982;-64
2023/10/03 14:53:36;;;;;;;;;;;;;;;;;;5032488;28;20403;-65
2023/10/03 14:56:02;;;;;;;;;;;;;;;;;;5032390;28;20403;-64
2023/10/03 14:58:28;;;;;;;;;;;;;;;;;;5032327;28;20081;-64
2023/10/03 15:00:54;;;;;;;;;;;;;;;;;;5032666;28;20036;-64
2023/10/03 15:03:21;;;;;;;;;;;;;;;;;;5032370;28;19986;-64
2023/10/03 15:05:48;;;;;;;;;;;;;;;;;;5032112;28;20072;-63
2023/10/03 15:08:14;;;;;;;;;;;;;;;;;;5032282;28;19990;-64
2023/10/03 15:10:40;;;;;;;;;;;;;;;;;;5032314;28;20036;-64
2023/10/03 15:13:06;;;;;;;;;;;;;;;;;;5032216;28;20048;-64
2023/10/03 15:15:32;;;;;;;;;;;;;;;;;;5032220;28;20362;-64
2023/10/03 15:17:58;;;;;;;;;;;;;;;;;;5030626;28;19986;-63
2023/10/03 15:20:26;;;;;;;;;;;;;;;;;;5032026;28;20009;-64
2023/10/03 15:22:52;;;;;;;;;;;;;;;;;;5032556;28;19986;-65
2023/10/03 15:25:18;;;;;;;;;;;;;;;;;;5031766;28;20073;-64
2023/10/03 15:27:43;;;;;;;;;;;;;;;;;;5031989;28;20288;-64
2023/10/03 15:30:09;;;;;;;;;;;;;;;;;;5031826;28;19983;-64
2023/10/03 15:32:35;;;;;;;;;;;;;;;;;;5031918;28;19986;-64
2023/10/03 15:35:04;;;;;;;;;;;;;;;;;;5031898;28;19986;-64
2023/10/03 15:37:30;;;;;;;;;;;;;;;;;;5032524;28;19997;-64
2023/10/03 15:39:56;;;;;;;;;;;;;;;;;;5051122;28;19986;-64
2023/10/03 15:42:22;;;;;;;;;;;;;;;;;;5048005;28;20477;-63
2023/10/03 15:44:48;;;;;;;;;;;;;;;;;;5038258;28;20025;-64
2023/10/03 15:47:14;;;;;;;;;;;;;;;;;;5034601;28;20018;-63
2023/10/03 15:49:40;;;;;;;;;;;;;;;;;;5037697;28;20426;-64
2023/10/03 15:52:06;;;;;;;;;;;;;;;;;;5051333;28;20341;-64
2023/10/03 15:54:32;;;;;;;;;;;;;;;;;;5041546;28;19982;-64
2023/10/03 15:56:58;;;;;;;;;;;;;;;;;;5044188;28;20122;-63
2023/10/03 15:59:25;;;;;;;;;;;;;;;;;;5044334;28;20435;-62
2023/10/03 16:01:51;;;;;;;;;;;;;;;;;;5031481;28;20089;-65
2023/10/03 16:04:17;;;;;;;;;;;;;;;;;;5033909;28;20438;-64
2023/10/03 16:06:44;;;;;;;;;;;;;;;;;;5041244;28;20401;-65
2023/10/03 16:09:13;;;;;;;;;;;;;;;;;;5041855;28;20492;-64
2023/10/03 16:11:40;;;;;;;;;;;;;;;;;;5032313;28;20474;-64
2023/10/03 16:14:07;;;;;;;;;;;;;;;;;;5051454;28;20240;-63
2023/10/03 16:16:39;;;;;;;;;;;;;;;;;;5043049;28;20055;-65
2023/10/03 16:19:06;;;;;;;;;;;;;;;;;;5031337;28;20039;-63
2023/10/03 16:21:33;;;;;;;;;;;;;;;;;;5031138;28;19982;-63
2023/10/03 16:24:00;;;;;;;;;;;;;;;;;;5030470;28;19997;-64
2023/10/03 16:26:28;;;;;;;;;;;;;;;;;;5030477;28;20010;-63
2023/10/03 16:28:54;;;;;;;;;;;;;;;;;;5031403;28;19997;-64
2023/10/03 16:31:21;;;;;;;;;;;;;;;;;;5032829;28;19986;-64
2023/10/03 16:33:56;;;;;;;;;;;;;;;;;;5040129;28;19990;-65
2023/10/03 16:36:22;;;;;;;;;;;;;;;;;;5048343;28;19985;-64
2023/10/03 16:38:48;;;;;;;;;;;;;;;;;;5048665;28;19989;-65
2023/10/03 16:41:14;;;;;;;;;;;;;;;;;;5046611;28;20035;-65
2023/10/03 16:43:40;;;;;;;;;;;;;;;;;;5031216;28;19982;-65
2023/10/03 16:46:06;;;;;;;;;;;;;;;;;;5037894;28;20018;-65
2023/10/03 16:48:32;;;;;;;;;;;;;;;;;;5043565;28;19986;-65